PWSweather.com
Personal Weather Stations
Station Observations
SONYA
Sergiev PosadRU

Sergiev PosadRU

Lat: 56.28148651, Lon: 38.05462646

Elevation: 741

Station Type: Fine offset WH1091

Latest ConditionsUpdated 10:47:00 AM GMT+03:03 Thursday, Jul 18, 2019
Currently Today's Max Today's Min Today's Average
Temperature 71.2°F21.8°C 72.0°F22.2°C 57.7°F14.3°C 60.6°F15.9°C
Dew Point 61.2°F16.2°C 64.9°F18.3°C 57.5°F14.2°C 59.2°F15.1°C
Winds 0.7 mph NE1.1 kmh NE 3.8 mph -6.1 kmh - - 0.6 mph 1.0 kmh
Wind Gusts 2.2 mph3.5 kmh 6.9 mph11.1 kmh - -
Humidity 64% 99% 64% 95%
Pressure 29.47 in998.0 mb 29.50 in999.0 mb 29.44 in997.0 mb -
Precipitation - 0.51 in13.0 mm - -
Hour Temp Dew Point Humidity Winds Wind Gusts Pressure Precip Precip Rate Daily Precip Total
10:47 AM 71.2°F21.8°C 61.2°F16.2°C 64% 0.7 mph NE1.1 kmh NE 2.2 mph3.5 kmh 29.47 in998.0 mb 0.00 in0.0 mm 0.00 in0.0 mm 0.51 in13.0 mm
10:42 AM 72.0°F22.2°C 61.9°F16.6°C 64% 3.1 mph E5.0 kmh E 4.5 mph7.2 kmh 29.46 in997.6 mb 0.00 in0.0 mm 0.00 in0.0 mm 0.51 in13.0 mm
10:37 AM 70.5°F21.4°C 61.8°F16.6°C 68% 1.6 mph NE2.6 kmh NE 3.1 mph5.0 kmh 29.47 in998.0 mb 0.00 in0.0 mm 0.00 in0.0 mm 0.51 in13.0 mm
10:32 AM 69.8°F21.0°C 61.8°F16.6°C 70% 1.6 mph E2.6 kmh E 3.1 mph5.0 kmh 29.46 in997.6 mb 0.00 in0.0 mm 0.00 in0.0 mm 0.51 in13.0 mm
10:27 AM 69.1°F20.6°C 61.4°F16.3°C 71% 2.2 mph SW3.5 kmh SW 3.8 mph6.1 kmh 29.46 in997.6 mb 0.00 in0.0 mm 0.00 in0.0 mm 0.51 in13.0 mm
10:22 AM 69.8°F21.0°C 61.8°F16.6°C 70% 1.6 mph E2.6 kmh E 2.2 mph3.5 kmh 29.47 in998.0 mb 0.00 in0.0 mm 0.00 in0.0 mm 0.51 in13.0 mm
10:17 AM 69.8°F21.0°C 61.8°F16.6°C 70% 1.6 mph NE2.6 kmh NE 3.1 mph5.0 kmh 29.46 in997.6 mb 0.00 in0.0 mm 0.00 in0.0 mm 0.51 in13.0 mm
10:12 AM 69.8°F21.0°C 61.5°F16.4°C 69% 3.1 mph 5.0 kmh 6.0 mph9.7 kmh 29.46 in997.6 mb 0.00 in0.0 mm 0.00 in0.0 mm 0.51 in13.0 mm
10:07 AM 69.8°F21.0°C 62.1°F16.7°C 71% 3.1 mph NE5.0 kmh NE 5.4 mph8.7 kmh 29.46 in997.6 mb 0.00 in0.0 mm 0.00 in0.0 mm 0.51 in13.0 mm
10:02 AM 69.4°F20.8°C 61.8°F16.6°C 71% 3.1 mph E5.0 kmh E 5.4 mph8.7 kmh 29.46 in997.6 mb 0.00 in0.0 mm 0.00 in0.0 mm 0.51 in13.0 mm
09:57 AM 69.1°F20.6°C 61.4°F16.3°C 71% 2.2 mph E3.5 kmh E 3.1 mph5.0 kmh 29.46 in997.6 mb 0.00 in0.0 mm 0.00 in0.0 mm 0.51 in13.0 mm
09:52 AM 70.0°F21.1°C 61.7°F16.5°C 69% 0.7 mph WNW1.1 kmh WNW 2.2 mph3.5 kmh 29.47 in998.0 mb 0.00 in0.0 mm 0.00 in0.0 mm 0.51 in13.0 mm
09:47 AM 70.3°F21.3°C 62.3°F16.8°C 70% 3.1 mph 5.0 kmh 5.4 mph8.7 kmh 29.46 in997.6 mb 0.00 in0.0 mm 0.00 in0.0 mm 0.51 in13.0 mm
09:42 AM 70.5°F21.4°C 62.5°F16.9°C 70% 3.8 mph NE6.1 kmh NE 6.0 mph9.7 kmh 29.46 in997.6 mb 0.00 in0.0 mm 0.00 in0.0 mm 0.51 in13.0 mm
09:37 AM 69.8°F21.0°C 62.7°F17.1°C 73% 2.2 mph NE3.5 kmh NE 3.8 mph6.1 kmh 29.46 in997.6 mb 0.00 in0.0 mm 0.00 in0.0 mm 0.51 in13.0 mm
09:32 AM 68.5°F20.3°C 60.9°F16.1°C 71% 3.1 mph 5.0 kmh 6.0 mph9.7 kmh 29.46 in997.6 mb 0.00 in0.0 mm 0.00 in0.0 mm 0.52 in13.2 mm
09:27 AM 68.5°F20.3°C 60.9°F16.1°C 71% 2.2 mph E3.5 kmh E 4.5 mph7.2 kmh 29.46 in997.6 mb 0.00 in0.0 mm 0.00 in0.0 mm 0.52 in13.2 mm
09:22 AM 68.9°F20.5°C 62.7°F17.1°C 76% 2.2 mph W3.5 kmh W 4.5 mph7.2 kmh 29.46 in997.6 mb 0.00 in0.0 mm 0.00 in0.0 mm 0.52 in13.2 mm
09:17 AM 67.6°F19.8°C 63.2°F17.3°C 82% 1.6 mph NE2.6 kmh NE 6.9 mph11.1 kmh 29.46 in997.6 mb 0.00 in0.0 mm 0.00 in0.0 mm 0.52 in13.2 mm
09:12 AM 66.0°F18.9°C 62.7°F17.1°C 86% 1.6 mph SW2.6 kmh SW 3.8 mph6.1 kmh 29.46 in997.6 mb 0.00 in0.0 mm 0.00 in0.0 mm 0.52 in13.2 mm
09:07 AM 65.3°F18.5°C 63.0°F17.2°C 90% 2.2 mph E3.5 kmh E 5.4 mph8.7 kmh 29.47 in998.0 mb 0.00 in0.0 mm 0.00 in0.0 mm 0.52 in13.2 mm
09:02 AM 65.5°F18.6°C 64.6°F18.1°C 96% 2.2 mph S3.5 kmh S 3.8 mph6.1 kmh 29.46 in997.6 mb 0.00 in0.0 mm 0.00 in0.0 mm 0.52 in13.2 mm
08:57 AM 65.1°F18.4°C 64.9°F18.3°C 99% 2.2 mph NE3.5 kmh NE 4.5 mph7.2 kmh 29.46 in997.6 mb 0.00 in0.0 mm 0.00 in0.0 mm 0.52 in13.2 mm
08:52 AM 64.6°F18.1°C 64.4°F18.0°C 99% 0.7 mph SE1.1 kmh SE 2.2 mph3.5 kmh 29.46 in997.6 mb 0.00 in0.0 mm 0.00 in0.0 mm 0.52 in13.2 mm
08:47 AM 63.9°F17.7°C 63.2°F17.3°C 97% Calm Calm 1.6 mph2.6 kmh 29.46 in997.6 mb 0.00 in0.0 mm 0.00 in0.0 mm 0.52 in13.2 mm
08:42 AM 62.1°F16.7°C 61.6°F16.4°C 98% Calm Calm 1.6 mph2.6 kmh 29.46 in997.6 mb 0.00 in0.0 mm 0.00 in0.0 mm 0.52 in13.2 mm
08:37 AM 61.9°F16.6°C 61.4°F16.3°C 98% 1.6 mph E2.6 kmh E 3.1 mph5.0 kmh 29.46 in997.6 mb 0.00 in0.0 mm 0.00 in0.0 mm 0.52 in13.2 mm
08:32 AM 61.5°F16.4°C 61.1°F16.2°C 98% 0.7 mph NE1.1 kmh NE 1.6 mph2.6 kmh 29.46 in997.6 mb 0.00 in0.0 mm 0.00 in0.0 mm 0.52 in13.2 mm
08:27 AM 61.5°F16.4°C 61.1°F16.2°C 98% 0.7 mph S1.1 kmh S 2.2 mph3.5 kmh 29.47 in998.0 mb 0.00 in0.0 mm 0.00 in0.0 mm 0.53 in13.5 mm
08:22 AM 61.2°F16.2°C 60.7°F15.9°C 98% Calm Calm 2.2 mph3.5 kmh 29.47 in998.0 mb 0.00 in0.0 mm 0.00 in0.0 mm 0.53 in13.5 mm
08:17 AM 61.2°F16.2°C 60.7°F15.9°C 98% 0.7 mph SE1.1 kmh SE 3.1 mph5.0 kmh 29.46 in997.6 mb 0.00 in0.0 mm 0.00 in0.0 mm 0.53 in13.5 mm
08:12 AM 61.0°F16.1°C 60.5°F15.8°C 98% Calm Calm 0.7 mph1.1 kmh 29.46 in997.6 mb 0.00 in0.0 mm 0.00 in0.0 mm 0.53 in13.5 mm
08:07 AM 60.6°F15.9°C 60.4°F15.8°C 99% 1.6 mph E2.6 kmh E 3.1 mph5.0 kmh 29.46 in997.6 mb 0.00 in0.0 mm 0.00 in0.0 mm 0.53 in13.5 mm
08:02 AM 60.4°F15.8°C 60.2°F15.7°C 99% 0.7 mph E1.1 kmh E 2.2 mph3.5 kmh 29.46 in997.6 mb 0.00 in0.0 mm 0.00 in0.0 mm 0.53 in13.5 mm
07:57 AM 60.3°F15.7°C 60.0°F15.6°C 99% Calm Calm 1.6 mph2.6 kmh 29.47 in998.0 mb 0.00 in0.0 mm 0.00 in0.0 mm 0.53 in13.5 mm
07:52 AM 60.3°F15.7°C 60.0°F15.6°C 99% 2.2 mph E3.5 kmh E 3.1 mph5.0 kmh 29.47 in998.0 mb 0.00 in0.0 mm 0.00 in0.0 mm 0.53 in13.5 mm
07:47 AM 59.9°F15.5°C 59.7°F15.4°C 99% 0.7 mph SE1.1 kmh SE 2.2 mph3.5 kmh 29.46 in997.6 mb 0.00 in0.0 mm 0.00 in0.0 mm 0.53 in13.5 mm
07:42 AM 59.4°F15.2°C 59.1°F15.1°C 99% Calm Calm 0.7 mph1.1 kmh 29.47 in998.0 mb 0.00 in0.0 mm 0.00 in0.0 mm 0.53 in13.5 mm
07:37 AM 59.2°F15.1°C 59.0°F15.0°C 99% 0.7 mph S1.1 kmh S 2.2 mph3.5 kmh 29.46 in997.6 mb 0.00 in0.0 mm 0.00 in0.0 mm 0.53 in13.5 mm
07:32 AM 59.2°F15.1°C 59.0°F15.0°C 99% 1.6 mph NE2.6 kmh NE 4.5 mph7.2 kmh 29.46 in997.6 mb 0.00 in0.0 mm 0.00 in0.0 mm 0.53 in13.5 mm
07:27 AM 59.2°F15.1°C 59.0°F15.0°C 99% 0.7 mph S1.1 kmh S 3.8 mph6.1 kmh 29.46 in997.6 mb 0.00 in0.0 mm 0.00 in0.0 mm 0.53 in13.5 mm
07:22 AM 59.0°F15.0°C 58.8°F14.9°C 99% 1.6 mph S2.6 kmh S 2.2 mph3.5 kmh 29.46 in997.6 mb 0.00 in0.0 mm 0.00 in0.0 mm 0.53 in13.5 mm
07:17 AM 58.8°F14.9°C 58.6°F14.8°C 99% Calm Calm 0.7 mph1.1 kmh 29.46 in997.6 mb 0.00 in0.0 mm 0.00 in0.0 mm 0.53 in13.5 mm
07:12 AM 58.6°F14.8°C 58.4°F14.7°C 99% 0.7 mph S1.1 kmh S 2.2 mph3.5 kmh 29.46 in997.6 mb 0.00 in0.0 mm 0.00 in0.0 mm 0.53 in13.5 mm
07:07 AM 58.5°F14.7°C 58.2°F14.6°C 99% Calm Calm 0.7 mph1.1 kmh 29.46 in997.6 mb 0.00 in0.0 mm 0.00 in0.0 mm 0.53 in13.5 mm
07:02 AM 58.5°F14.7°C 58.2°F14.6°C 99% 0.7 mph SE1.1 kmh SE 1.6 mph2.6 kmh 29.46 in997.6 mb 0.00 in0.0 mm 0.00 in0.0 mm 0.53 in13.5 mm
06:57 AM 58.3°F14.6°C 58.1°F14.5°C 99% Calm Calm 0.7 mph1.1 kmh 29.46 in997.6 mb 0.00 in0.0 mm 0.00 in0.0 mm 0.53 in13.5 mm
06:52 AM 58.3°F14.6°C 58.1°F14.5°C 99% Calm Calm 2.2 mph3.5 kmh 29.46 in997.6 mb 0.00 in0.0 mm 0.00 in0.0 mm 0.54 in13.7 mm
06:47 AM 58.3°F14.6°C 58.1°F14.5°C 99% Calm Calm 0.7 mph1.1 kmh 29.46 in997.6 mb 0.00 in0.0 mm 0.00 in0.0 mm 0.54 in13.7 mm
06:42 AM 58.5°F14.7°C 58.2°F14.6°C 99% Calm Calm 1.6 mph2.6 kmh 29.46 in997.6 mb 0.00 in0.0 mm 0.00 in0.0 mm 0.54 in13.7 mm
06:37 AM 58.5°F14.7°C 58.2°F14.6°C 99% 1.6 mph NE2.6 kmh NE 3.1 mph5.0 kmh 29.46 in997.6 mb 0.00 in0.0 mm 0.00 in0.0 mm 0.54 in13.7 mm
06:32 AM 58.5°F14.7°C 58.2°F14.6°C 99% Calm Calm -- 29.45 in997.3 mb 0.00 in0.0 mm 0.00 in0.0 mm 0.54 in13.7 mm
06:27 AM 58.3°F14.6°C 58.1°F14.5°C 99% 1.6 mph S2.6 kmh S 3.1 mph5.0 kmh 29.46 in997.6 mb 0.00 in0.0 mm 0.00 in0.0 mm 0.54 in13.7 mm
06:22 AM 58.5°F14.7°C 58.2°F14.6°C 99% 0.7 mph SW1.1 kmh SW 2.2 mph3.5 kmh 29.46 in997.6 mb 0.00 in0.0 mm 0.00 in0.0 mm 0.56 in14.2 mm
06:17 AM 58.3°F14.6°C 58.1°F14.5°C 99% 0.7 mph S1.1 kmh S 1.6 mph2.6 kmh 29.46 in997.6 mb 0.00 in0.0 mm 0.00 in0.0 mm 0.56 in14.2 mm
06:12 AM 58.3°F14.6°C 58.1°F14.5°C 99% Calm Calm 0.7 mph1.1 kmh 29.46 in997.6 mb 0.00 in0.0 mm 0.00 in0.0 mm 0.56 in14.2 mm
06:07 AM 58.5°F14.7°C 58.2°F14.6°C 99% 0.7 mph SE1.1 kmh SE 2.2 mph3.5 kmh 29.45 in997.3 mb 0.00 in0.0 mm 0.00 in0.0 mm 0.57 in14.5 mm
06:02 AM 58.3°F14.6°C 58.1°F14.5°C 99% Calm Calm 0.7 mph1.1 kmh 29.45 in997.3 mb 0.00 in0.0 mm 0.00 in0.0 mm 0.57 in14.5 mm
05:57 AM 57.9°F14.4°C 57.7°F14.3°C 99% 1.6 mph SW2.6 kmh SW 3.1 mph5.0 kmh 29.45 in997.3 mb 0.00 in0.0 mm 0.00 in0.0 mm 0.57 in14.5 mm
05:52 AM 57.9°F14.4°C 57.7°F14.3°C 99% 0.7 mph S1.1 kmh S 2.2 mph3.5 kmh 29.44 in997.0 mb 0.00 in0.0 mm 0.00 in0.0 mm 0.57 in14.5 mm
05:47 AM 58.1°F14.5°C 57.9°F14.4°C 99% 1.6 mph S2.6 kmh S 2.2 mph3.5 kmh 29.44 in997.0 mb 0.00 in0.0 mm 0.00 in0.0 mm 0.57 in14.5 mm
05:42 AM 58.1°F14.5°C 57.9°F14.4°C 99% Calm Calm -- 29.44 in997.0 mb 0.00 in0.0 mm 0.00 in0.0 mm 0.57 in14.5 mm
05:37 AM 57.9°F14.4°C 57.7°F14.3°C 99% Calm Calm -- 29.44 in997.0 mb 0.00 in0.0 mm 0.00 in0.0 mm 0.57 in14.5 mm
05:32 AM 57.9°F14.4°C 57.7°F14.3°C 99% Calm Calm 1.6 mph2.6 kmh 29.45 in997.3 mb 0.00 in0.0 mm 0.00 in0.0 mm 0.57 in14.5 mm
05:27 AM 57.9°F14.4°C 57.7°F14.3°C 99% 0.7 mph NE1.1 kmh NE 2.2 mph3.5 kmh 29.44 in997.0 mb 0.00 in0.0 mm 0.00 in0.0 mm 0.57 in14.5 mm
05:22 AM 57.9°F14.4°C 57.7°F14.3°C 99% 0.7 mph SW1.1 kmh SW 1.6 mph2.6 kmh 29.45 in997.3 mb 0.00 in0.0 mm 0.00 in0.0 mm 0.57 in14.5 mm
05:17 AM 57.7°F14.3°C 57.5°F14.2°C 99% Calm Calm 0.7 mph1.1 kmh 29.45 in997.3 mb 0.00 in0.0 mm 0.00 in0.0 mm 0.57 in14.5 mm
05:12 AM 57.7°F14.3°C 57.5°F14.2°C 99% 0.7 mph SE1.1 kmh SE 1.6 mph2.6 kmh 29.45 in997.3 mb 0.00 in0.0 mm 0.00 in0.0 mm 0.57 in14.5 mm
05:07 AM 57.7°F14.3°C 57.5°F14.2°C 99% Calm Calm 0.7 mph1.1 kmh 29.45 in997.3 mb 0.00 in0.0 mm 0.00 in0.0 mm 0.57 in14.5 mm
05:02 AM 57.7°F14.3°C 57.5°F14.2°C 99% Calm Calm 0.7 mph1.1 kmh 29.45 in997.3 mb 0.00 in0.0 mm 0.00 in0.0 mm 0.58 in14.7 mm
04:57 AM 57.9°F14.4°C 57.7°F14.3°C 99% 0.7 mph SW1.1 kmh SW 1.6 mph2.6 kmh 29.45 in997.3 mb 0.00 in0.0 mm 0.00 in0.0 mm 0.58 in14.7 mm
04:52 AM 57.9°F14.4°C 57.7°F14.3°C 99% 0.7 mph SW1.1 kmh SW 3.1 mph5.0 kmh 29.46 in997.6 mb 0.00 in0.0 mm 0.00 in0.0 mm 0.58 in14.7 mm
04:47 AM 57.9°F14.4°C 57.7°F14.3°C 99% Calm Calm -- 29.45 in997.3 mb 0.00 in0.0 mm 0.00 in0.0 mm 0.58 in14.7 mm
04:42 AM 57.9°F14.4°C 57.7°F14.3°C 99% Calm Calm 0.7 mph1.1 kmh 29.45 in997.3 mb 0.00 in0.0 mm 0.00 in0.0 mm 0.58 in14.7 mm
04:37 AM 57.9°F14.4°C 57.7°F14.3°C 99% Calm Calm 1.6 mph2.6 kmh 29.45 in997.3 mb 0.00 in0.0 mm 0.00 in0.0 mm 0.58 in14.7 mm
04:32 AM 57.9°F14.4°C 57.7°F14.3°C 99% Calm Calm -- 29.45 in997.3 mb 0.00 in0.0 mm 0.00 in0.0 mm 0.58 in14.7 mm
04:27 AM 57.9°F14.4°C 57.7°F14.3°C 99% Calm Calm -- 29.45 in997.3 mb 0.00 in0.0 mm 0.00 in0.0 mm 0.59 in15.0 mm
04:22 AM 57.9°F14.4°C 57.7°F14.3°C 99% Calm Calm 1.6 mph2.6 kmh 29.45 in997.3 mb 0.00 in0.0 mm 0.00 in0.0 mm 0.59 in15.0 mm
04:17 AM 57.9°F14.4°C 57.7°F14.3°C 99% 1.6 mph S2.6 kmh S 3.1 mph5.0 kmh 29.45 in997.3 mb 0.00 in0.0 mm 0.00 in0.0 mm 0.59 in15.0 mm
04:12 AM 58.1°F14.5°C 57.9°F14.4°C 99% Calm Calm 1.6 mph2.6 kmh 29.45 in997.3 mb 0.00 in0.0 mm 0.00 in0.0 mm 0.59 in15.0 mm
04:07 AM 58.1°F14.5°C 57.9°F14.4°C 99% Calm Calm 0.7 mph1.1 kmh 29.46 in997.6 mb 0.00 in0.0 mm 0.00 in0.0 mm 0.59 in15.0 mm
04:02 AM 58.1°F14.5°C 57.9°F14.4°C 99% Calm Calm -- 29.45 in997.3 mb 0.00 in0.0 mm 0.00 in0.0 mm 0.59 in15.0 mm
03:57 AM 58.1°F14.5°C 57.9°F14.4°C 99% Calm Calm 1.6 mph2.6 kmh 29.45 in997.3 mb 0.00 in0.0 mm 0.00 in0.0 mm 0.59 in15.0 mm
03:52 AM 58.3°F14.6°C 58.1°F14.5°C 99% 0.7 mph S1.1 kmh S 2.2 mph3.5 kmh 29.46 in997.6 mb 0.00 in0.0 mm 0.00 in0.0 mm 0.59 in15.0 mm
03:47 AM 58.3°F14.6°C 58.1°F14.5°C 99% Calm Calm -- 29.45 in997.3 mb 0.00 in0.0 mm 0.00 in0.0 mm 0.59 in15.0 mm
03:42 AM 58.3°F14.6°C 58.1°F14.5°C 99% Calm Calm -- 29.46 in997.6 mb 0.00 in0.0 mm 0.00 in0.0 mm 0.59 in15.0 mm
03:37 AM 58.3°F14.6°C 58.1°F14.5°C 99% Calm Calm 1.6 mph2.6 kmh 29.45 in997.3 mb 0.00 in0.0 mm 0.00 in0.0 mm 0.59 in15.0 mm
03:32 AM 58.5°F14.7°C 58.2°F14.6°C 99% Calm Calm -- 29.46 in997.6 mb 0.01 in0.3 mm 0.00 in0.0 mm 0.59 in15.0 mm
03:27 AM 58.5°F14.7°C 58.2°F14.6°C 99% Calm Calm -- 29.45 in997.3 mb 0.01 in0.3 mm 0.00 in0.0 mm 0.59 in15.0 mm
03:22 AM 58.5°F14.7°C 58.2°F14.6°C 99% Calm Calm -- 29.45 in997.3 mb 0.01 in0.3 mm 0.00 in0.0 mm 0.59 in15.0 mm
03:17 AM 58.5°F14.7°C 58.2°F14.6°C 99% Calm Calm -- 29.46 in997.6 mb 0.01 in0.3 mm 0.00 in0.0 mm 0.59 in15.0 mm
03:12 AM 58.5°F14.7°C 58.2°F14.6°C 99% 0.7 mph S1.1 kmh S 1.6 mph2.6 kmh 29.46 in997.6 mb 0.01 in0.3 mm 0.00 in0.0 mm 0.59 in15.0 mm
03:07 AM 58.3°F14.6°C 58.1°F14.5°C 99% Calm Calm -- 29.45 in997.3 mb 0.01 in0.3 mm 0.00 in0.0 mm 0.59 in15.0 mm
03:02 AM 58.3°F14.6°C 58.1°F14.5°C 99% Calm Calm -- 29.46 in997.6 mb 0.01 in0.3 mm 0.00 in0.0 mm 0.59 in15.0 mm
02:57 AM 58.3°F14.6°C 58.1°F14.5°C 99% Calm Calm -- 29.46 in997.6 mb 0.01 in0.3 mm 0.00 in0.0 mm 0.59 in15.0 mm
02:52 AM 58.3°F14.6°C 58.1°F14.5°C 99% Calm Calm -- 29.46 in997.6 mb 0.01 in0.3 mm 0.00 in0.0 mm 0.59 in15.0 mm
02:47 AM 58.3°F14.6°C 58.1°F14.5°C 99% Calm Calm -- 29.46 in997.6 mb 0.01 in0.3 mm 0.00 in0.0 mm 0.59 in15.0 mm
02:42 AM 58.5°F14.7°C 58.2°F14.6°C 99% Calm Calm -- 29.46 in997.6 mb 0.01 in0.3 mm 0.00 in0.0 mm 0.59 in15.0 mm
02:37 AM 58.5°F14.7°C 58.2°F14.6°C 99% Calm Calm -- 29.47 in998.0 mb 0.01 in0.3 mm 0.14 in3.6 mm 0.59 in15.0 mm
02:32 AM 58.6°F14.8°C 58.4°F14.7°C 99% Calm Calm -- 29.46 in997.6 mb 0.00 in0.0 mm 0.00 in0.0 mm 0.58 in14.7 mm
02:27 AM 58.6°F14.8°C 58.4°F14.7°C 99% Calm Calm -- 29.47 in998.0 mb 0.00 in0.0 mm 0.00 in0.0 mm 0.58 in14.7 mm
02:22 AM 58.6°F14.8°C 58.4°F14.7°C 99% Calm Calm -- 29.47 in998.0 mb 0.00 in0.0 mm 0.00 in0.0 mm 0.58 in14.7 mm
02:17 AM 58.6°F14.8°C 58.4°F14.7°C 99% Calm Calm -- 29.47 in998.0 mb 0.00 in0.0 mm 0.00 in0.0 mm 0.58 in14.7 mm
02:12 AM 58.6°F14.8°C 58.4°F14.7°C 99% Calm Calm -- 29.47 in998.0 mb 0.00 in0.0 mm 0.00 in0.0 mm 0.58 in14.7 mm
02:07 AM 58.6°F14.8°C 58.4°F14.7°C 99% Calm Calm -- 29.48 in998.3 mb 0.00 in0.0 mm 0.00 in0.0 mm 0.58 in14.7 mm
02:02 AM 58.5°F14.7°C 58.2°F14.6°C 99% Calm Calm -- 29.48 in998.3 mb 0.00 in0.0 mm 0.00 in0.0 mm 0.58 in14.7 mm
01:57 AM 58.5°F14.7°C 58.2°F14.6°C 99% Calm Calm -- 29.48 in998.3 mb 0.00 in0.0 mm 0.00 in0.0 mm 0.58 in14.7 mm
01:52 AM 58.6°F14.8°C 58.4°F14.7°C 99% Calm Calm -- 29.48 in998.3 mb 0.00 in0.0 mm 0.00 in0.0 mm 0.58 in14.7 mm
01:47 AM 58.6°F14.8°C 58.4°F14.7°C 99% Calm Calm -- 29.48 in998.3 mb 0.00 in0.0 mm 0.00 in0.0 mm 0.58 in14.7 mm
01:42 AM 58.6°F14.8°C 58.4°F14.7°C 99% Calm Calm -- 29.48 in998.3 mb 0.00 in0.0 mm 0.00 in0.0 mm 0.58 in14.7 mm
01:37 AM 58.6°F14.8°C 58.4°F14.7°C 99% Calm Calm -- 29.48 in998.3 mb 0.00 in0.0 mm 0.00 in0.0 mm 0.58 in14.7 mm
01:32 AM 58.6°F14.8°C 58.4°F14.7°C 99% Calm Calm -- 29.48 in998.3 mb 0.00 in0.0 mm 0.00 in0.0 mm 0.58 in14.7 mm
01:27 AM 58.6°F14.8°C 58.4°F14.7°C 99% Calm Calm -- 29.48 in998.3 mb 0.00 in0.0 mm 0.00 in0.0 mm 0.58 in14.7 mm
01:22 AM 58.6°F14.8°C 58.4°F14.7°C 99% Calm Calm -- 29.49 in998.6 mb 0.00 in0.0 mm 0.00 in0.0 mm 0.58 in14.7 mm
01:17 AM 58.6°F14.8°C 58.4°F14.7°C 99% Calm Calm -- 29.49 in998.6 mb 0.00 in0.0 mm 0.00 in0.0 mm 0.58 in14.7 mm
01:12 AM 58.6°F14.8°C 58.4°F14.7°C 99% Calm Calm -- 29.49 in998.6 mb 0.00 in0.0 mm 0.00 in0.0 mm 0.58 in14.7 mm
01:07 AM 58.6°F14.8°C 58.4°F14.7°C 99% Calm Calm -- 29.49 in998.6 mb 0.00 in0.0 mm 0.00 in0.0 mm 0.58 in14.7 mm
01:02 AM 58.6°F14.8°C 58.4°F14.7°C 99% Calm Calm -- 29.49 in998.6 mb 0.00 in0.0 mm 0.00 in0.0 mm 0.58 in14.7 mm
12:57 AM 58.6°F14.8°C 58.4°F14.7°C 99% Calm Calm -- 29.49 in998.6 mb 0.00 in0.0 mm 0.00 in0.0 mm 0.58 in14.7 mm
12:52 AM 58.6°F14.8°C 58.4°F14.7°C 99% Calm Calm -- 29.49 in998.6 mb 0.00 in0.0 mm 0.00 in0.0 mm 0.58 in14.7 mm
12:47 AM 58.6°F14.8°C 58.4°F14.7°C 99% 1.6 mph NE2.6 kmh NE 2.2 mph3.5 kmh 29.49 in998.6 mb 0.00 in0.0 mm 0.00 in0.0 mm 0.58 in14.7 mm
12:42 AM 58.6°F14.8°C 58.4°F14.7°C 99% Calm Calm -- 29.49 in998.6 mb 0.00 in0.0 mm 0.00 in0.0 mm 0.58 in14.7 mm
12:37 AM 58.6°F14.8°C 58.4°F14.7°C 99% Calm Calm -- 29.49 in998.6 mb 0.00 in0.0 mm 0.00 in0.0 mm 0.58 in14.7 mm
12:32 AM 58.6°F14.8°C 58.4°F14.7°C 99% Calm Calm -- 29.49 in998.6 mb 0.00 in0.0 mm 0.00 in0.0 mm 0.58 in14.7 mm
12:27 AM 58.6°F14.8°C 58.4°F14.7°C 99% Calm Calm -- 29.49 in998.6 mb 0.00 in0.0 mm 0.00 in0.0 mm 0.58 in14.7 mm
12:22 AM 58.6°F14.8°C 58.4°F14.7°C 99% Calm Calm -- 29.49 in998.6 mb 0.00 in0.0 mm 0.00 in0.0 mm 0.58 in14.7 mm
12:17 AM 58.6°F14.8°C 58.4°F14.7°C 99% Calm Calm -- 29.50 in999.0 mb 0.00 in0.0 mm 0.00 in0.0 mm 0.58 in14.7 mm
12:12 AM 58.6°F14.8°C 58.4°F14.7°C 99% Calm Calm -- 29.50 in999.0 mb 0.00 in0.0 mm 0.00 in0.0 mm 0.58 in14.7 mm
12:07 AM 58.6°F14.8°C 58.4°F14.7°C 99% Calm Calm -- 29.50 in999.0 mb 0.00 in0.0 mm 0.00 in0.0 mm 0.58 in14.7 mm
12:02 AM 58.6°F14.8°C 58.4°F14.7°C 99% Calm Calm -- 29.50 in999.0 mb 0.00 in0.0 mm 0.00 in0.0 mm 0.58 in14.7 mm